Time;durP1;ratioP1;P1;durP2;ratioP2;P2;SDS_P1;SDS_P2;PMS_P1;PMS_P2;Temp;Humidity;BMP_temperature;BMP_pressure;BME280_temperature;BME280_humidity;BME280_pressure;Samples;Min_cycle;Max_cycle;Signal;HPM_P1;HPM_P2
2022/07/03 00:01:24;;;;;;;1.58;1.23;;;;;;;31.61;29.72;98760.03;5093564;28;20138;-78
2022/07/03 00:03:50;;;;;;;1.42;1.33;;;;;;;31.99;29.19;98764.09;5093234;28;20035;-77
2022/07/03 00:06:16;;;;;;;1.48;1.23;;;;;;;32.59;28.32;98758.56;5093367;28;20081;-77
2022/07/03 00:08:42;;;;;;;1.00;1.00;;;;;;;32.37;28.75;98757.13;5093258;28;20028;-77
2022/07/03 00:11:09;;;;;;;1.58;1.10;;;;;;;32.31;28.72;98756.97;5093595;28;20020;-77
2022/07/03 00:13:36;;;;;;;1.30;1.20;;;;;;;31.90;28.88;98754.72;5088873;28;20038;-77
2022/07/03 00:16:02;;;;;;;1.02;1.02;;;;;;;32.51;28.32;98748.00;5073125;28;20115;-77
2022/07/03 00:18:28;;;;;;;2.08;0.95;;;;;;;32.98;27.73;98750.25;5073096;28;20039;-78
2022/07/03 00:21:05;;;;;;;1.23;1.20;;;;;;;32.45;28.49;98744.16;5073047;28;20033;-77
2022/07/03 00:23:55;;;;;;;1.50;1.40;;;;;;;32.15;28.83;98742.28;5073065;28;20064;-77
2022/07/03 00:26:24;;;;;;;1.03;1.03;;;;;;;32.05;29.24;98750.03;5073041;28;20461;-77
2022/07/03 00:28:50;;;;;;;1.35;1.10;;;;;;;31.51;30.09;98745.00;5072816;28;20029;-77
2022/07/03 00:31:16;;;;;;;1.65;1.55;;;;;;;31.85;29.30;98744.00;5076920;28;20040;-77
2022/07/03 00:33:44;;;;;;;1.60;1.38;;;;;;;30.98;30.61;98735.03;5076782;28;20116;-77
2022/07/03 00:36:13;;;;;;;2.08;1.50;;;;;;;31.17;29.98;98728.97;5077318;28;20396;-77
2022/07/03 00:38:39;;;;;;;1.50;1.40;;;;;;;31.19;30.70;98734.16;5077155;28;20037;-77
2022/07/03 00:41:06;;;;;;;1.20;1.20;;;;;;;30.40;31.38;98729.94;5076864;28;20033;-77
2022/07/03 00:43:32;;;;;;;1.20;1.20;;;;;;;30.71;31.35;98730.00;5078261;28;20086;-77
2022/07/03 00:46:09;;;;;;;1.63;1.52;;;;;;;30.67;31.55;98735.78;5097111;28;20491;-77
2022/07/03 00:48:38;;;;;;;1.83;1.73;;;;;;;29.09;33.50;98733.63;5096172;28;20028;-77
2022/07/03 00:51:07;;;;;;;1.83;1.73;;;;;;;29.48;33.61;98721.03;5096950;28;20036;-77
2022/07/03 00:53:36;;;;;;;2.80;1.20;;;;;;;30.10;32.42;98713.63;5097167;28;20032;-77
2022/07/03 00:56:04;;;;;;;1.90;1.80;;;;;;;29.84;33.04;98723.47;5096776;28;20077;-77
2022/07/03 00:58:33;;;;;;;2.72;1.88;;;;;;;29.13;34.25;98717.34;5096459;28;20442;-78
2022/07/03 01:01:00;;;;;;;2.13;1.88;;;;;;;30.51;32.04;98709.69;5096813;28;20085;-77
2022/07/03 01:03:28;;;;;;;1.77;1.67;;;;;;;30.49;31.58;98709.38;5078240;28;20364;-77
2022/07/03 01:05:59;;;;;;;1.73;1.45;;;;;;;30.95;31.34;98705.53;5080392;28;20024;-77
2022/07/03 01:08:36;;;;;;;1.60;1.50;;;;;;;30.53;31.83;98704.34;5076393;28;20024;-77
2022/07/03 01:11:32;;;;;;;1.80;1.70;;;;;;;31.16;30.99;98695.38;5076256;28;20110;-78
2022/07/03 01:14:16;;;;;;;1.92;1.73;;;;;;;30.61;31.42;98695.13;5075228;28;20032;-77
2022/07/03 01:16:55;;;;;;;1.67;1.58;;;;;;;30.45;31.64;98694.56;5076250;28;20037;-77
2022/07/03 01:19:43;;;;;;;2.00;1.90;;;;;;;30.68;31.71;98692.00;5076268;28;20461;-77
2022/07/03 01:22:22;;;;;;;1.52;1.40;;;;;;;29.94;32.76;98691.94;5085121;28;20032;-77
2022/07/03 01:24:59;;;;;;;4.72;1.77;;;;;;;30.00;32.72;98686.50;5085074;28;20036;-77
2022/07/03 01:27:34;;;;;;;1.70;1.60;;;;;;;30.37;31.69;98691.19;5076274;28;20068;-77
2022/07/03 01:30:10;;;;;;;1.80;1.70;;;;;;;30.06;32.68;98685.44;5079072;28;20063;-77
2022/07/03 01:32:44;;;;;;;1.75;1.65;;;;;;;29.69;32.87;98696.88;5075748;28;20036;-77
2022/07/03 01:35:16;;;;;;;1.65;1.55;;;;;;;30.96;31.22;98695.78;5075844;28;20029;-77
2022/07/03 01:37:44;;;;;;;2.00;1.90;;;;;;;31.41;30.38;98689.47;5091398;28;20051;-77
2022/07/03 01:40:11;;;;;;;1.70;1.60;;;;;;;31.18;31.12;98698.56;5091580;28;20467;-77
2022/07/03 01:42:43;;;;;;;1.92;1.70;;;;;;;31.30;30.69;98697.63;5074828;28;20025;-77
2022/07/03 01:45:12;;;;;;;2.05;1.50;;;;;;;31.28;30.54;98689.59;5075442;28;20070;-77
2022/07/03 01:47:41;;;;;;;1.55;1.45;;;;;;;31.24;30.56;98688.94;5075706;28;20408;-77
2022/07/03 01:50:12;;;;;;;1.50;1.40;;;;;;;31.48;30.18;98686.38;5075545;28;20024;-77
2022/07/03 01:52:42;;;;;;;2.55;1.60;;;;;;;31.68;29.99;98681.00;5075605;28;20491;-77
2022/07/03 01:55:09;;;;;;;1.27;1.17;;;;;;;31.44;30.16;98670.75;5075382;28;20032;-77
2022/07/03 01:57:44;;;;;;;1.83;1.73;;;;;;;31.00;30.91;98670.09;5075157;28;20283;-78
2022/07/03 02:00:13;;;;;;;1.80;1.70;;;;;;;31.48;30.04;98677.06;5075551;28;20089;-77
2022/07/03 02:03:08;;;;;;;1.88;1.77;;;;;;;31.25;30.71;98682.00;5075406;28;20025;-77
2022/07/03 02:05:37;;;;;;;2.33;1.60;;;;;;;32.19;29.37;98680.41;5066820;28;20049;-77
2022/07/03 02:08:44;;;;;;;1.60;1.50;;;;;;;31.65;29.78;98692.53;5075251;28;20036;-78
2022/07/03 02:11:20;;;;;;;1.45;1.35;;;;;;;31.11;30.69;98679.75;5086641;28;20071;-77
2022/07/03 02:13:49;;;;;;;1.95;1.42;;;;;;;30.36;32.14;98683.97;5075196;28;20487;-77
2022/07/03 02:16:20;;;;;;;1.92;1.35;;;;;;;31.06;30.92;98680.41;5074790;28;20395;-77
2022/07/03 02:18:51;;;;;;;;;;;;;;;31.26;30.74;98671.44;5075545;28;20032;-77
2022/07/03 02:21:18;;;;;;;;;;;;;;;30.55;31.89;98671.44;5075636;28;20402;-77
2022/07/03 02:24:13;;;;;;;1.42;1.33;;;;;;;30.76;31.70;98672.66;5075029;28;19917;-77
2022/07/03 02:26:42;;;;;;;2.03;1.83;;;;;;;30.81;31.61;98665.63;5076546;28;20051;-77
2022/07/03 02:29:14;;;;;;;2.10;1.90;;;;;;;31.06;30.84;98666.22;5088319;28;20469;-77
2022/07/03 02:31:45;;;;;;;1.80;1.67;;;;;;;30.79;31.02;98660.38;5091914;28;20029;-78
2022/07/03 02:34:15;;;;;;;;;;;;;;;31.19;31.05;98664.03;5075046;28;20077;-77
2022/07/03 02:36:47;;;;;;;1.70;1.60;;;;;;;31.39;30.25;98661.53;5074861;28;19959;-77
2022/07/03 02:39:32;;;;;;;3.28;1.50;;;;;;;30.83;30.85;98663.09;5074604;28;20060;-77
2022/07/03 02:42:10;;;;;;;1.70;1.50;;;;;;;31.50;30.18;98669.66;5084630;28;20054;-77
2022/07/03 02:44:46;;;;;;;1.33;1.23;;;;;;;31.96;29.95;98667.59;5094723;28;20111;-77
2022/07/03 02:47:38;;;;;;;1.52;1.42;;;;;;;32.04;29.36;98675.34;5066572;28;20062;-78
2022/07/03 02:50:09;;;;;;;2.22;1.60;;;;;;;32.32;28.99;98669.66;5077403;28;20485;-77
2022/07/03 02:52:38;;;;;;;1.50;1.40;;;;;;;32.42;28.93;98669.13;5082483;28;20103;-78
2022/07/03 02:55:38;;;;;;;1.33;1.20;;;;;;;32.08;29.05;98670.31;5074334;28;20029;-77
2022/07/03 02:58:25;;;;;;;1.23;1.13;;;;;;;31.96;29.34;98668.44;5073753;28;20052;-77
2022/07/03 03:01:07;;;;;;;3.78;1.23;;;;;;;31.99;29.36;98658.16;5074263;28;20066;-77
2022/07/03 03:03:34;;;;;;;1.50;1.40;;;;;;;32.01;29.16;98649.97;5078342;28;20016;-77
2022/07/03 03:06:12;;;;;;;2.05;1.10;;;;;;;32.17;29.13;98655.31;5094389;28;20501;-77
2022/07/03 03:08:50;;;;;;;3.42;1.30;;;;;;;32.45;28.79;98656.03;5094088;28;20070;-77
2022/07/03 03:11:43;;;;;;;1.50;1.40;;;;;;;32.51;28.91;98654.16;5094426;28;20101;-77
2022/07/03 03:14:15;;;;;;;1.42;1.33;;;;;;;32.09;29.13;98654.84;5089344;28;20040;-77
2022/07/03 03:17:04;;;;;;;2.90;1.33;;;;;;;32.28;29.23;98654.81;5094202;28;20055;-77
2022/07/03 03:19:33;;;;;;;1.30;1.20;;;;;;;32.50;28.77;98655.41;5094283;28;20032;-78
2022/07/03 03:22:07;;;;;;;2.88;1.20;;;;;;;33.00;27.89;98662.34;5077741;28;20033;-78
2022/07/03 03:24:34;;;;;;;1.25;1.25;;;;;;;33.07;27.86;98662.03;5073874;28;20032;-78
2022/07/03 03:27:00;;;;;;;0.95;0.95;;;;;;;32.73;28.14;98663.25;5073311;28;20064;-77
2022/07/03 03:29:27;;;;;;;1.00;1.00;;;;;;;32.31;29.08;98662.38;5082468;28;20036;-78
2022/07/03 03:31:54;;;;;;;1.50;1.40;;;;;;;32.45;28.93;98665.34;5094176;28;20026;-78
2022/07/03 03:34:22;;;;;;;2.78;1.15;;;;;;;32.84;28.44;98666.34;5093928;28;20498;-77
2022/07/03 03:36:48;;;;;;;1.40;1.30;;;;;;;31.96;29.86;98668.44;5094180;28;20365;-77
2022/07/03 03:39:15;;;;;;;1.30;1.20;;;;;;;31.72;29.83;98667.44;5075444;28;20033;-77
2022/07/03 03:41:41;;;;;;;1.30;1.20;;;;;;;32.25;29.70;98667.94;5091970;28;20028;-77
2022/07/03 03:44:07;;;;;;;1.75;1.13;;;;;;;32.68;29.00;98663.88;5093670;28;20074;-77
2022/07/03 03:46:33;;;;;;;1.40;1.17;;;;;;;32.50;29.03;98661.91;5093528;28;20032;-78
2022/07/03 03:49:00;;;;;;;1.63;1.15;;;;;;;32.46;29.38;98660.47;5093824;28;20028;-77
2022/07/03 03:51:26;;;;;;;1.33;1.23;;;;;;;32.38;29.33;98653.53;5093667;28;20147;-77
2022/07/03 03:53:52;;;;;;;1.52;1.42;;;;;;;32.43;29.19;98650.84;5075597;28;20060;-77
2022/07/03 03:56:18;;;;;;;1.23;1.13;;;;;;;32.70;29.14;98650.75;5073785;28;20037;-78
2022/07/03 03:58:44;;;;;;;1.60;1.50;;;;;;;32.45;29.40;98644.66;5088662;28;20048;-78
2022/07/03 04:01:12;;;;;;;1.10;1.10;;;;;;;32.69;29.20;98646.38;5073264;28;20128;-77
2022/07/03 04:03:40;;;;;;;1.63;1.52;;;;;;;32.83;28.85;98641.25;5093663;28;20144;-77
2022/07/03 04:06:06;;;;;;;1.40;1.30;;;;;;;32.09;30.10;98649.16;5093590;28;20099;-78
2022/07/03 04:08:32;;;;;;;1.83;1.40;;;;;;;32.14;30.05;98652.63;5093338;28;20081;-78
2022/07/03 04:10:59;;;;;;;1.20;1.10;;;;;;;32.29;29.93;98650.69;5084609;28;20434;-77
2022/07/03 04:13:25;;;;;;;1.70;1.60;;;;;;;32.21;30.03;98655.16;5092969;28;20067;-77
2022/07/03 04:15:52;;;;;;;1.45;1.35;;;;;;;33.03;29.22;98653.66;5093347;28;20024;-78
2022/07/03 04:18:19;;;;;;;1.50;1.05;;;;;;;32.49;29.32;98651.78;5093244;28;20062;-77
2022/07/03 04:20:45;;;;;;;1.42;1.33;;;;;;;32.66;29.76;98655.84;5093184;28;20036;-77
2022/07/03 04:23:11;;;;;;;2.45;2.08;;;;;;;32.59;30.05;98656.19;5093214;28;20144;-78
2022/07/03 04:25:37;;;;;;;2.08;1.50;;;;;;;31.83;30.40;98658.47;5085576;28;20423;-78
2022/07/03 04:28:04;;;;;;;2.42;1.30;;;;;;;31.31;31.44;98653.81;5072882;28;20037;-78
2022/07/03 04:30:30;;;;;;;0.98;0.98;;;;;;;31.87;30.87;98654.19;5092909;28;20448;-78
2022/07/03 04:32:56;;;;;;;4.40;1.63;;;;;;;32.49;29.88;98654.63;5076461;28;20040;-78
2022/07/03 04:35:22;;;;;;;1.70;1.52;;;;;;;33.31;28.91;98652.22;5073165;28;20491;-78
2022/07/03 04:37:48;;;;;;;1.15;1.08;;;;;;;32.63;29.64;98656.00;5072884;28;20123;-77
2022/07/03 04:40:14;;;;;;;1.60;1.50;;;;;;;32.79;29.81;98652.00;5090263;28;20518;-78
2022/07/03 04:42:41;;;;;;;1.75;1.65;;;;;;;32.02;30.63;98649.47;5093058;28;20507;-78
2022/07/03 04:45:08;;;;;;;5.50;1.45;;;;;;;31.81;31.14;98641.88;5091756;28;20107;-77
2022/07/03 04:47:34;;;;;;;2.13;1.60;;;;;;;31.55;31.76;98648.34;5072905;28;20154;-77
2022/07/03 04:50:00;;;;;;;3.63;2.03;;;;;;;30.57;33.44;98632.09;5072613;28;20043;-77
2022/07/03 04:52:26;;;;;;;2.78;1.60;;;;;;;30.55;33.69;98628.94;5073037;28;20021;-77
2022/07/03 04:54:52;;;;;;;2.25;2.15;;;;;;;31.19;33.26;98634.84;5072551;28;20037;-77
2022/07/03 04:57:18;;;;;;;1.73;1.63;;;;;;;33.07;30.81;98631.50;5072579;28;20166;-77
2022/07/03 04:59:46;;;;;;;1.40;1.30;;;;;;;33.57;29.19;98631.81;5072549;28;20053;-78
2022/07/03 05:02:12;;;;;;;1.98;1.30;;;;;;;33.63;28.84;98633.50;5073963;28;20082;-77
2022/07/03 05:04:38;;;;;;;7.85;2.55;;;;;;;33.37;29.05;98630.34;5071228;28;20033;-77
2022/07/03 05:07:04;;;;;;;1.48;1.38;;;;;;;33.60;29.72;98620.25;5072617;28;20033;-77
2022/07/03 05:09:30;;;;;;;1.80;1.35;;;;;;;33.85;29.31;98625.44;5072191;28;20028;-78
2022/07/03 05:11:56;;;;;;;1.50;1.40;;;;;;;33.52;29.11;98621.06;5072341;28;20060;-77
2022/07/03 05:14:22;;;;;;;2.03;1.83;;;;;;;31.54;31.74;98622.00;5072502;28;20029;-78
2022/07/03 05:16:48;;;;;;;1.70;1.60;;;;;;;31.29;33.15;98603.22;5075654;28;20028;-77
2022/07/03 05:19:15;;;;;;;2.53;1.90;;;;;;;30.67;34.02;98607.41;5077824;28;20071;-78
2022/07/03 05:21:41;;;;;;;2.45;2.28;;;;;;;30.87;33.34;98604.19;5096288;28;20539;-78
2022/07/03 05:24:07;;;;;;;2.20;1.63;;;;;;;31.79;32.31;98613.16;5096262;28;20027;-78
2022/07/03 05:26:33;;;;;;;1.70;1.60;;;;;;;32.64;31.19;98612.09;5096359;28;20043;-77
2022/07/03 05:28:59;;;;;;;1.90;1.80;;;;;;;31.09;32.90;98614.19;5096492;28;20032;-77
2022/07/03 05:31:25;;;;;;;1.90;1.67;;;;;;;31.34;32.71;98613.16;5096229;28;20106;-77
2022/07/03 05:33:52;;;;;;;7.45;2.28;;;;;;;31.69;31.79;98617.28;5089419;28;20357;-77
2022/07/03 05:36:18;;;;;;;1.73;1.63;;;;;;;32.31;31.39;98611.22;5076244;28;20425;-77
2022/07/03 05:41:28;;;;;;;2.53;1.88;;;;;;;32.00;31.69;98617.91;5089123;28;20034;-77
2022/07/03 05:43:54;;;;;;;1.63;1.52;;;;;;;32.18;30.89;98617.09;5075759;28;20029;-78
2022/07/03 05:46:20;;;;;;;1.70;1.60;;;;;;;32.18;30.45;98613.47;5083937;28;20031;-78
2022/07/03 05:48:46;;;;;;;2.33;1.30;;;;;;;31.97;31.15;98613.19;5095775;28;20031;-78
2022/07/03 05:51:12;;;;;;;1.98;1.77;;;;;;;31.40;32.20;98619.75;5085765;28;20484;-77
2022/07/03 05:53:39;;;;;;;1.50;1.30;;;;;;;31.62;32.26;98622.50;5092364;28;20039;-77
2022/07/03 05:56:05;;;;;;;2.05;1.52;;;;;;;32.90;30.61;98621.78;5083666;28;20404;-78
2022/07/03 05:58:31;;;;;;;1.63;1.20;;;;;;;34.00;28.60;98616.91;5094046;28;20130;-78
2022/07/03 06:00:57;;;;;;;1.00;1.00;;;;;;;35.30;27.29;98617.28;5090650;28;20021;-78
2022/07/03 06:03:23;;;;;;;1.20;1.10;;;;;;;35.69;26.34;98612.06;5068858;28;20046;-78
2022/07/03 06:05:49;;;;;;;1.95;1.40;;;;;;;34.50;27.44;98612.91;5095610;28;20067;-78
2022/07/03 06:08:15;;;;;;;0.82;0.82;;;;;;;34.92;28.33;98618.25;5095527;28;20103;-78
2022/07/03 06:10:41;;;;;;;1.30;1.20;;;;;;;33.57;29.10;98611.88;5094382;28;20039;-78
2022/07/03 06:13:08;;;;;;;1.00;1.00;;;;;;;34.40;27.96;98611.41;5072002;28;20029;-78
2022/07/03 06:15:34;;;;;;;1.08;1.00;;;;;;;34.66;28.05;98611.63;5075465;28;20158;-78
2022/07/03 06:18:00;;;;;;;1.95;1.10;;;;;;;34.85;26.92;98607.25;5075007;28;20037;-77
2022/07/03 06:20:26;;;;;;;1.20;1.10;;;;;;;35.56;26.10;98609.59;5075060;28;20037;-78
2022/07/03 06:22:52;;;;;;;1.55;1.10;;;;;;;35.92;26.05;98619.63;5056854;28;20024;-78
2022/07/03 06:25:18;;;;;;;2.67;1.17;;;;;;;36.02;25.71;98621.06;5074983;28;20024;-78
2022/07/03 06:27:44;;;;;;;1.17;1.08;;;;;;;35.87;25.43;98617.50;5074123;28;20839;-78
2022/07/03 06:30:11;;;;;;;1.25;1.15;;;;;;;36.35;25.28;98606.31;5074939;28;20550;-78
2022/07/03 06:32:37;;;;;;;1.70;1.60;;;;;;;35.03;27.06;98617.69;5074942;28;20132;-78
2022/07/03 06:35:04;;;;;;;1.25;1.10;;;;;;;35.81;24.73;98619.50;5074722;28;20080;-78
2022/07/03 06:37:30;;;;;;;3.90;1.40;;;;;;;35.74;25.71;98608.50;5091312;28;20055;-78
2022/07/03 06:39:56;;;;;;;1.67;1.40;;;;;;;35.72;25.29;98609.00;5094907;28;20035;-78
2022/07/03 06:42:22;;;;;;;1.30;1.20;;;;;;;34.53;27.47;98605.44;5095190;28;20361;-78
2022/07/03 06:44:48;;;;;;;1.60;1.50;;;;;;;34.38;27.01;98599.72;5087943;28;20043;-78
2022/07/03 06:47:15;;;;;;;1.70;1.60;;;;;;;33.80;28.14;98614.69;5056519;28;20028;-78
2022/07/03 06:49:43;;;;;;;1.30;1.20;;;;;;;34.15;27.43;98605.53;5073093;28;20040;-78
2022/07/03 06:52:09;;;;;;;1.40;1.30;;;;;;;33.15;29.29;98604.25;5081104;28;20028;-78
2022/07/03 06:54:39;;;;;;;1.92;1.83;;;;;;;31.86;30.22;98607.16;5085669;28;20384;-78
2022/07/03 06:57:05;;;;;;;1.70;1.60;;;;;;;32.82;29.33;98606.31;5094755;28;20065;-78
2022/07/03 06:59:31;;;;;;;2.03;1.40;;;;;;;33.06;29.71;98603.53;5094494;28;20123;-78
2022/07/03 07:01:57;;;;;;;1.60;1.50;;;;;;;32.30;30.27;98596.22;5093633;28;20023;-78
2022/07/03 07:04:23;;;;;;;1.35;1.25;;;;;;;33.37;28.86;98601.88;5073867;28;20032;-78
2022/07/03 07:06:49;;;;;;;1.48;1.38;;;;;;;34.49;27.46;98591.38;5074154;28;20032;-78
2022/07/03 07:09:15;;;;;;;3.30;1.48;;;;;;;33.35;28.55;98592.28;5073869;28;20039;-78
2022/07/03 07:11:41;;;;;;;2.63;1.60;;;;;;;33.24;29.34;98589.97;5074003;28;20025;-78
2022/07/03 07:14:07;;;;;;;1.80;1.70;;;;;;;33.00;28.83;98591.97;5074048;28;20033;-78
2022/07/03 07:16:33;;;;;;;1.83;1.60;;;;;;;34.18;28.35;98584.59;5073936;28;20456;-78
2022/07/03 07:19:00;;;;;;;1.52;1.42;;;;;;;34.45;26.92;98582.22;5073966;28;20040;-78
2022/07/03 07:21:26;;;;;;;3.15;1.42;;;;;;;33.73;27.54;98585.81;5073892;28;20032;-78
2022/07/03 07:23:52;;;;;;;1.60;1.50;;;;;;;34.14;28.40;98576.25;5073731;28;20039;-78
2022/07/03 07:26:20;;;;;;;1.60;1.50;;;;;;;35.37;26.70;98566.25;5078907;28;20032;-78
2022/07/03 07:28:46;;;;;;;1.45;1.25;;;;;;;35.67;25.43;98569.72;5094078;28;20075;-78
2022/07/03 07:31:12;;;;;;;1.30;1.20;;;;;;;34.69;27.60;98565.78;5070892;28;20036;-78
2022/07/03 07:33:38;;;;;;;1.40;1.30;;;;;;;35.15;27.43;98568.78;5073575;28;20032;-78
2022/07/03 07:36:05;;;;;;;1.42;1.33;;;;;;;34.84;26.97;98576.38;5074099;28;20456;-78
2022/07/03 07:38:31;;;;;;;1.52;1.42;;;;;;;34.20;27.22;98573.47;5090453;28;20115;-78
2022/07/03 07:40:57;;;;;;;3.75;2.20;;;;;;;33.36;28.42;98573.91;5093679;28;20036;-78
2022/07/03 07:43:23;;;;;;;1.48;1.38;;;;;;;34.58;27.45;98570.53;5093703;28;20598;-78
2022/07/03 07:45:49;;;;;;;1.70;1.60;;;;;;;34.94;27.17;98567.16;5075483;28;20020;-78
2022/07/03 07:48:18;;;;;;;1.65;1.55;;;;;;;34.35;27.32;98568.56;5093343;28;20051;-77
2022/07/03 07:50:44;;;;;;;1.70;1.60;;;;;;;35.29;27.88;98570.00;5093324;28;20085;-78
2022/07/03 07:53:10;;;;;;;2.10;1.90;;;;;;;36.00;26.22;98552.16;5065490;28;20044;-78
2022/07/03 07:55:36;;;;;;;1.40;1.30;;;;;;;36.32;25.47;98558.69;5073236;28;20024;-78
2022/07/03 07:58:02;;;;;;;1.33;1.27;;;;;;;36.19;25.53;98556.25;5073045;28;20497;-78
2022/07/03 08:00:28;;;;;;;1.65;1.55;;;;;;;34.86;27.18;98553.81;5073638;28;20082;-77
2022/07/03 08:05:39;;;;;;;2.15;1.85;;;;;;;33.91;29.55;98546.53;5073626;28;20531;-78
2022/07/03 08:08:16;;;;;;;2.00;1.80;;;;;;;35.59;26.57;98554.31;5055487;28;20377;-78
2022/07/03 08:10:42;;;;;;;2.33;2.22;;;;;;;33.61;28.93;98558.41;5073122;28;20032;-78
2022/07/03 08:13:09;;;;;;;2.10;1.92;;;;;;;33.67;29.24;98556.44;5073386;28;20107;-78
2022/07/03 08:15:35;;;;;;;2.10;1.98;;;;;;;34.51;27.70;98548.88;5073089;28;20039;-78
2022/07/03 08:18:02;;;;;;;2.10;1.90;;;;;;;34.95;27.07;98543.06;5072851;28;20523;-78
2022/07/03 08:20:28;;;;;;;2.88;2.67;;;;;;;33.77;28.18;98553.00;5073086;28;20033;-78
2022/07/03 08:22:55;;;;;;;2.42;2.10;;;;;;;33.67;29.16;98553.59;5072917;28;20071;-78
2022/07/03 08:25:21;;;;;;;3.78;2.38;;;;;;;34.80;28.19;98553.72;5072771;28;20051;-78
2022/07/03 08:27:48;;;;;;;2.10;1.80;;;;;;;34.69;27.06;98554.38;5073365;28;20043;-78
2022/07/03 08:30:17;;;;;;;1.83;1.73;;;;;;;34.53;27.45;98554.91;5072809;28;20036;-78
2022/07/03 08:32:44;;;;;;;3.63;2.85;;;;;;;33.07;29.29;98563.19;5072840;28;20507;-78
2022/07/03 08:35:10;;;;;;;2.80;2.60;;;;;;;32.93;29.71;98546.81;5092655;28;20030;-77
2022/07/03 08:37:36;;;;;;;2.60;2.40;;;;;;;32.60;31.47;98546.06;5093299;28;20388;-78
2022/07/03 08:40:03;;;;;;;2.90;2.70;;;;;;;32.68;31.27;98541.59;5093267;28;20104;-77
2022/07/03 08:42:32;;;;;;;4.68;2.42;;;;;;;33.57;30.05;98543.53;5092941;28;20484;-77
2022/07/03 08:44:59;;;;;;;5.18;3.53;;;;;;;33.88;30.50;98538.19;5076327;28;20017;-78
2022/07/03 08:47:26;;;;;;;4.63;4.22;;;;;;;32.67;30.93;98540.03;5072975;28;20388;-78
2022/07/03 08:49:54;;;;;;;3.90;3.50;;;;;;;33.52;30.28;98542.13;5072818;28;20516;-78
2022/07/03 08:52:22;;;;;;;5.00;4.50;;;;;;;34.12;29.47;98529.56;5086893;28;20071;-78
2022/07/03 08:54:50;;;;;;;4.47;3.97;;;;;;;34.00;28.43;98546.41;5090261;28;20073;-78
2022/07/03 08:57:16;;;;;;;5.15;3.60;;;;;;;33.91;28.86;98537.97;5096808;28;20044;-78
2022/07/03 08:59:45;;;;;;;3.45;3.15;;;;;;;34.14;29.34;98533.50;5096314;28;20044;-78
2022/07/03 09:02:13;;;;;;;4.13;3.72;;;;;;;32.96;29.56;98536.53;5078756;28;20025;-78
2022/07/03 09:04:40;;;;;;;3.60;3.30;;;;;;;34.06;28.89;98532.31;5076720;28;20161;-78
2022/07/03 09:07:09;;;;;;;2.95;2.75;;;;;;;35.22;27.57;98527.59;5076810;28;20029;-78
2022/07/03 09:09:37;;;;;;;3.40;3.20;;;;;;;35.08;27.08;98520.69;5076213;28;20039;-78
2022/07/03 09:12:03;;;;;;;4.07;3.72;;;;;;;33.64;28.63;98521.16;5091991;28;20078;-78
2022/07/03 09:14:30;;;;;;;4.05;3.70;;;;;;;34.47;30.20;98519.00;5075946;28;20064;-78
2022/07/03 09:16:56;;;;;;;3.22;3.03;;;;;;;34.60;27.91;98523.13;5076283;28;20033;-78
2022/07/03 09:19:41;;;;;;;3.97;3.53;;;;;;;33.59;29.77;98521.84;5095366;28;20040;-78
2022/07/03 09:22:31;;;;;;;3.03;2.83;;;;;;;34.25;27.21;98525.13;5096455;28;20429;-78
2022/07/03 09:25:11;;;;;;;3.30;3.10;;;;;;;34.48;27.11;98532.75;5096439;28;20078;-78
2022/07/03 09:27:48;;;;;;;2.78;2.58;;;;;;;36.31;24.83;98520.75;5076436;28;20392;-78
2022/07/03 09:30:14;;;;;;;2.53;2.33;;;;;;;37.33;24.18;98518.78;5075824;28;20037;-78
2022/07/03 09:32:48;;;;;;;2.90;2.70;;;;;;;35.07;26.19;98519.13;5075732;28;20115;-78
2022/07/03 09:35:23;;;;;;;2.75;2.55;;;;;;;34.29;28.35;98520.00;5068300;28;20032;-78
2022/07/03 09:38:00;;;;;;;3.00;2.80;;;;;;;34.66;27.74;98515.41;5096314;28;20036;-78
2022/07/03 09:40:46;;;;;;;2.47;2.38;;;;;;;35.27;26.54;98516.25;5096054;28;20044;-78
2022/07/03 09:43:12;;;;;;;3.10;2.90;;;;;;;34.45;27.62;98516.63;5096034;28;20396;-78
2022/07/03 09:46:05;;;;;;;2.95;2.75;;;;;;;34.22;28.18;98509.00;5095957;28;20078;-78
2022/07/03 09:48:40;;;;;;;2.97;2.78;;;;;;;34.13;28.62;98505.47;5093981;28;20042;-78
2022/07/03 09:51:16;;;;;;;3.20;3.00;;;;;;;33.54;28.69;98510.38;5094538;28;20077;-78
2022/07/03 09:53:50;;;;;;;3.50;3.17;;;;;;;33.49;28.71;98516.72;5075651;28;20400;-77
2022/07/03 09:56:17;;;;;;;3.55;3.25;;;;;;;32.84;30.61;98512.75;5075457;28;20052;-78
2022/07/03 09:59:04;;;;;;;3.78;3.47;;;;;;;33.06;29.68;98506.78;5075084;28;20128;-78
2022/07/03 10:01:31;;;;;;;8.13;3.92;;;;;;;33.32;29.34;98500.09;5075009;28;20037;-78
2022/07/03 10:04:24;;;;;;;3.78;3.47;;;;;;;35.02;27.69;98497.00;5075326;28;20079;-78
2022/07/03 10:06:58;;;;;;;4.20;3.45;;;;;;;36.60;25.52;98497.56;5073328;28;20106;-78
2022/07/03 10:09:26;;;;;;;3.13;2.92;;;;;;;35.69;25.63;98497.78;5075816;28;20036;-78
2022/07/03 10:11:53;;;;;;;3.10;2.90;;;;;;;35.76;26.42;98503.84;5075048;28;20079;-77
2022/07/03 10:14:21;;;;;;;3.00;2.70;;;;;;;36.54;24.57;98502.47;5075383;28;20048;-78
2022/07/03 10:16:48;;;;;;;3.88;3.40;;;;;;;34.23;27.08;98498.38;5075435;28;20028;-78
2022/07/03 10:19:19;;;;;;;3.08;2.88;;;;;;;33.99;27.61;98493.56;5075034;28;20485;-78
2022/07/03 10:21:50;;;;;;;2.97;2.80;;;;;;;33.69;28.32;98492.00;5075341;28;20039;-78
2022/07/03 10:24:17;;;;;;;3.17;2.97;;;;;;;33.85;28.37;98490.72;5075264;28;20032;-78
2022/07/03 10:26:43;;;;;;;3.55;3.28;;;;;;;34.79;27.22;98486.56;5083325;28;20035;-78
2022/07/03 10:29:10;;;;;;;3.47;3.17;;;;;;;34.56;27.89;98484.69;5078459;28;20032;-78
2022/07/03 10:31:38;;;;;;;4.97;3.03;;;;;;;34.77;28.63;98480.56;5087306;28;20035;-78
2022/07/03 10:34:06;;;;;;;4.07;3.70;;;;;;;33.78;28.48;98485.41;5094962;28;20020;-78
2022/07/03 10:36:36;;;;;;;3.15;2.95;;;;;;;34.99;26.50;98477.19;5095289;28;20032;-78
2022/07/03 10:39:05;;;;;;;4.13;3.50;;;;;;;33.89;28.21;98491.31;5095045;28;20032;-78
2022/07/03 10:47:05;;;;;;;2.72;2.45;;;;;;;35.68;25.31;98476.22;5094759;28;20074;-78
2022/07/03 10:49:31;;;;;;;3.50;3.20;;;;;;;34.84;27.18;98459.38;5076625;28;20488;-78
2022/07/03 10:52:00;;;;;;;3.20;2.88;;;;;;;35.27;27.49;98461.22;5076510;28;20042;-78
2022/07/03 10:54:31;;;;;;;4.53;3.15;;;;;;;35.07;26.65;98469.81;5094569;28;20063;-78
2022/07/03 10:57:00;;;;;;;3.10;2.90;;;;;;;36.17;25.41;98458.75;5094635;28;20028;-78
2022/07/03 10:59:35;;;;;;;3.38;3.05;;;;;;;36.01;24.96;98445.88;5090643;28;20067;-78
2022/07/03 11:02:34;;;;;;;2.45;2.25;;;;;;;36.71;24.20;98454.69;5074247;28;20037;-78
2022/07/03 11:05:03;;;;;;;2.97;2.53;;;;;;;36.36;24.97;98450.56;5056503;28;20025;-78
2022/07/03 11:07:54;;;;;;;2.53;2.38;;;;;;;36.66;24.80;98449.75;5074108;28;20060;-78
2022/07/03 11:10:26;;;;;;;2.60;2.33;;;;;;;36.36;25.03;98448.47;5073868;28;20399;-78
2022/07/03 11:13:12;;;;;;;3.28;3.00;;;;;;;35.29;25.46;98439.44;5074292;28;20039;-78
2022/07/03 11:15:45;;;;;;;2.47;2.38;;;;;;;37.31;24.19;98435.44;5074294;28;20406;-78
2022/07/03 11:18:30;;;;;;;2.75;2.50;;;;;;;38.32;22.54;98435.03;5091968;28;20456;-78
2022/07/03 11:21:15;;;;;;;2.75;2.55;;;;;;;37.84;22.74;98432.44;5094109;28;20090;-78
2022/07/03 11:24:18;;;;;;;3.22;2.88;;;;;;;36.21;24.42;98442.13;5094232;28;20373;-78
2022/07/03 11:26:44;;;;;;;2.97;2.72;;;;;;;35.96;24.97;98438.03;5079330;28;20043;-78
2022/07/03 11:29:40;;;;;;;3.58;3.20;;;;;;;35.28;25.60;98434.25;5073600;28;20418;-78
2022/07/03 11:32:45;;;;;;;3.33;3.03;;;;;;;35.59;26.34;98444.97;5064961;28;20043;-78
2022/07/03 11:35:48;;;;;;;3.35;2.92;;;;;;;37.23;24.00;98440.88;5073717;28;20484;-78
2022/07/03 11:38:32;;;;;;;5.13;3.42;;;;;;;36.25;24.95;98439.03;5073626;28;20032;-78
2022/07/03 11:41:00;;;;;;;2.90;2.70;;;;;;;36.87;24.65;98435.25;5073399;28;20062;-78
2022/07/03 11:43:26;;;;;;;2.08;1.98;;;;;;;37.84;23.03;98434.50;5074453;28;20036;-78
2022/07/03 11:45:52;;;;;;;3.13;2.83;;;;;;;37.50;23.56;98430.03;5073528;28;20098;-78
2022/07/03 11:48:25;;;;;;;3.05;2.65;;;;;;;38.10;22.32;98437.91;5073336;28;20028;-78
2022/07/03 11:50:52;;;;;;;2.75;2.55;;;;;;;37.93;23.15;98434.25;5073329;28;20041;-78
2022/07/03 11:53:29;;;;;;;2.88;2.55;;;;;;;37.08;23.99;98434.59;5073778;28;20029;-78
2022/07/03 11:56:05;;;;;;;2.72;2.50;;;;;;;35.87;25.28;98435.34;5084385;28;20046;-78
2022/07/03 11:58:43;;;;;;;3.13;2.90;;;;;;;35.96;24.75;98438.03;5073314;28;20053;-78
2022/07/03 12:01:34;;;;;;;3.17;2.88;;;;;;;36.44;24.28;98425.91;5073371;28;20036;-78